Terminal Aerodrome Forecast
Issued by NWS Wilmington, OH

Home | Current Version | Previous Version | Text Only | Print | Product List | Glossary On
Versions: 1 2 3 4 5 6 7 8 9 10 11 12 13 14 15 16
841
FTUS41 KILN 242048 AAA
TAFDAY
TAF AMD
KDAY 242048Z 2421/2518 19011KT P6SM SCT040 BKN100
      TEMPO 2422/2424 2SM TSRA BKN040CB
     FM250300 22008KT P6SM FEW040 BKN250
     FM251500 22012G20KT P6SM FEW040=

USA.gov is the U.S. government's official web portal to all federal, state and local government web resources and services.